Time;durP1;ratioP1;P1;durP2;ratioP2;P2;SDS_P1;SDS_P2;PMS_P1;PMS_P2;Temp;Humidity;BMP_temperature;BMP_pressure;BME280_temperature;BME280_humidity;BME280_pressure;Samples;Min_cycle;Max_cycle;Signal;HPM_P1;HPM_P2
2022/03/13 00:00:16;;;;;;;18.38;9.55;;;;;;;9.29;69.09;101493.78;5072708;28;20056;-57
2022/03/13 00:02:45;;;;;;;15.52;9.05;;;;;;;9.34;69.08;101496.19;5072313;28;20052;-57
2022/03/13 00:05:16;;;;;;;16.65;9.90;;;;;;;9.27;69.15;101500.88;5072876;28;20140;-57
2022/03/13 00:07:46;;;;;;;14.93;9.30;;;;;;;9.21;69.75;101504.66;5072590;28;20083;-57
2022/03/13 00:10:16;;;;;;;15.23;9.60;;;;;;;9.18;69.41;101502.19;5072896;28;20511;-57
2022/03/13 00:12:46;;;;;;;17.00;9.63;;;;;;;9.11;69.83;101499.03;5072802;28;20591;-57
2022/03/13 00:15:24;;;;;;;17.27;10.02;;;;;;;9.22;69.03;101489.78;5072445;28;20056;-57
2022/03/13 00:17:53;;;;;;;17.25;9.90;;;;;;;9.11;69.67;101491.16;5072661;28;20044;-56
2022/03/13 00:20:22;;;;;;;19.23;10.85;;;;;;;9.03;70.15;101489.84;5072578;28;20118;-57
2022/03/13 00:22:50;;;;;;;17.70;9.93;;;;;;;9.07;69.79;101486.97;5072408;28;20438;-57
2022/03/13 00:25:18;;;;;;;18.98;10.20;;;;;;;9.04;70.09;101488.88;5072679;28;20450;-57
2022/03/13 00:27:46;;;;;;;15.90;10.00;;;;;;;9.05;69.93;101485.34;5072374;28;20050;-57
2022/03/13 00:30:17;;;;;;;17.73;9.80;;;;;;;8.99;70.02;101483.88;5072445;28;20075;-58
2022/03/13 00:32:45;;;;;;;17.63;10.20;;;;;;;8.89;70.30;101485.22;5072268;28;20105;-57
2022/03/13 00:35:14;;;;;;;18.25;10.15;;;;;;;8.86;70.42;101486.25;5072194;28;20136;-57
2022/03/13 00:37:42;;;;;;;16.95;9.82;;;;;;;8.77;70.83;101486.69;5071414;28;20538;-57
2022/03/13 00:40:14;;;;;;;17.40;10.20;;;;;;;8.77;70.38;101492.75;5072251;28;20384;-58
2022/03/13 00:42:42;;;;;;;16.40;9.32;;;;;;;8.76;70.77;101490.22;5072407;28;20131;-57
2022/03/13 00:45:10;;;;;;;15.57;8.65;;;;;;;8.73;70.86;101493.81;5072369;28;20048;-57
2022/03/13 00:47:42;;;;;;;17.27;9.95;;;;;;;8.79;70.57;101488.31;5072292;28;20048;-57
2022/03/13 00:50:11;;;;;;;20.63;10.15;;;;;;;8.75;70.66;101489.38;5072297;28;20552;-58
2022/03/13 00:52:39;;;;;;;17.35;10.35;;;;;;;8.72;71.03;101486.88;5071735;28;20491;-57
2022/03/13 00:55:08;;;;;;;16.60;9.57;;;;;;;8.73;70.98;101479.88;5071967;28;20098;-66
2022/03/13 00:57:36;;;;;;;20.35;10.20;;;;;;;8.77;70.73;101484.88;5071731;28;20534;-66
2022/03/13 01:00:06;;;;;;;16.10;9.88;;;;;;;8.75;70.75;101484.13;5071905;28;20456;-58
2022/03/13 01:02:35;;;;;;;16.95;10.25;;;;;;;8.82;70.25;101483.81;5071626;28;20079;-66
2022/03/13 01:05:05;;;;;;;18.75;10.55;;;;;;;8.82;70.10;101486.44;5071682;28;20131;-66
2022/03/13 01:07:35;;;;;;;16.40;10.07;;;;;;;8.80;70.14;101483.91;5070049;28;20055;-66
2022/03/13 01:10:07;;;;;;;17.50;10.35;;;;;;;8.76;70.36;101477.09;5071884;28;20063;-57
2022/03/13 01:12:35;;;;;;;17.38;9.93;;;;;;;8.74;70.63;101482.41;5071613;28;20048;-57
2022/03/13 01:15:05;;;;;;;18.60;10.45;;;;;;;8.75;70.47;101476.25;5071889;28;20054;-57
2022/03/13 01:17:34;;;;;;;18.33;10.73;;;;;;;8.73;71.00;101477.25;5071966;28;20118;-57
2022/03/13 01:20:14;;;;;;;19.60;11.23;;;;;;;8.66;71.11;101474.06;5072354;28;20094;-66
2022/03/13 01:22:42;;;;;;;18.85;11.23;;;;;;;8.59;71.75;101476.13;5071993;28;20045;-57
2022/03/13 01:25:11;;;;;;;20.40;11.23;;;;;;;8.55;72.20;101465.84;5071885;28;20036;-65
2022/03/13 01:27:41;;;;;;;19.48;11.73;;;;;;;8.55;71.79;101458.84;5072222;28;20056;-65
2022/03/13 01:30:10;;;;;;;21.05;11.35;;;;;;;8.54;72.22;101453.66;5071970;28;20119;-66
2022/03/13 01:32:38;;;;;;;19.25;11.02;;;;;;;8.58;72.33;101448.19;5071688;28;20114;-67
2022/03/13 01:35:09;;;;;;;19.10;11.55;;;;;;;8.51;72.29;101435.44;5072212;28;20119;-67
2022/03/13 01:37:40;;;;;;;21.42;11.73;;;;;;;8.45;72.41;101434.81;5071574;28;20045;-66
2022/03/13 01:40:21;;;;;;;18.77;11.13;;;;;;;8.39;72.81;101427.22;5071466;28;20053;-66
2022/03/13 01:42:51;;;;;;;20.20;11.65;;;;;;;8.40;72.82;101425.47;5071308;28;20049;-67
2022/03/13 01:45:20;;;;;;;19.95;11.48;;;;;;;8.39;73.13;101434.22;5071254;28;20041;-67
2022/03/13 01:47:49;;;;;;;21.02;12.50;;;;;;;8.35;72.97;101424.81;5072739;28;20049;-66
2022/03/13 01:50:19;;;;;;;21.40;11.85;;;;;;;8.39;73.03;101431.59;5075329;28;20048;-66
2022/03/13 01:52:49;;;;;;;19.17;11.73;;;;;;;8.28;73.29;101424.25;5075618;28;20110;-66
2022/03/13 01:55:18;;;;;;;22.27;12.45;;;;;;;8.25;73.27;101424.41;5075405;28;20048;-66
2022/03/13 01:57:47;;;;;;;20.58;11.93;;;;;;;8.22;73.24;101419.28;5075286;28;20055;-66
2022/03/13 02:00:20;;;;;;;22.20;12.63;;;;;;;8.21;73.61;101415.81;5075368;28;20135;-66
2022/03/13 02:02:49;;;;;;;19.13;11.63;;;;;;;8.15;72.89;101413.47;5075172;28;20079;-66
2022/03/13 02:05:30;;;;;;;21.98;12.57;;;;;;;8.09;73.46;101411.13;5075306;28;20079;-66
2022/03/13 02:08:00;;;;;;;19.02;11.68;;;;;;;8.01;73.60;101414.09;5074969;28;20060;-66
2022/03/13 02:10:28;;;;;;;19.95;12.45;;;;;;;8.10;73.19;101403.19;5074944;28;20045;-66
2022/03/13 02:12:57;;;;;;;19.30;11.80;;;;;;;8.06;73.36;101411.28;5075070;28;20045;-66
2022/03/13 02:15:31;;;;;;;23.00;14.25;;;;;;;7.97;73.40;101411.69;5075121;28;20057;-66
2022/03/13 02:18:01;;;;;;;18.23;12.18;;;;;;;7.92;73.41;101404.91;5074777;28;20075;-66
2022/03/13 02:20:31;;;;;;;20.83;12.48;;;;;;;7.93;73.46;101400.50;5074674;28;20522;-66
2022/03/13 02:23:06;;;;;;;18.90;11.80;;;;;;;7.83;74.03;101399.22;5074855;28;20044;-66
2022/03/13 02:25:37;;;;;;;20.88;13.05;;;;;;;7.77;74.51;101389.84;5075006;28;20041;-66
2022/03/13 02:28:12;;;;;;;20.38;13.05;;;;;;;7.77;74.25;101389.84;5074924;28;20044;-66
2022/03/13 02:30:41;;;;;;;20.83;12.23;;;;;;;7.72;74.48;101389.22;5074789;28;20123;-66
2022/03/13 02:33:09;;;;;;;21.35;13.07;;;;;;;7.70;74.65;101384.06;5073212;28;20475;-66
2022/03/13 02:35:38;;;;;;;20.75;12.00;;;;;;;7.71;74.81;101387.53;5074710;28;20127;-66
2022/03/13 02:38:07;;;;;;;22.83;12.05;;;;;;;7.77;74.80;101387.22;5074351;28;20056;-66
2022/03/13 02:40:37;;;;;;;22.20;12.10;;;;;;;7.65;75.89;101391.25;5074221;28;20563;-66
2022/03/13 02:43:06;;;;;;;20.67;12.05;;;;;;;7.68;75.13;101395.53;5074538;28;20052;-66
2022/03/13 02:45:38;;;;;;;20.73;12.00;;;;;;;7.61;75.33;101392.31;5074211;28;20127;-66
2022/03/13 02:48:10;;;;;;;20.15;11.48;;;;;;;7.59;75.58;101391.53;5074319;28;20049;-66
2022/03/13 02:50:41;;;;;;;19.63;11.70;;;;;;;7.57;76.01;101396.81;5074486;28;20044;-66
2022/03/13 02:53:17;;;;;;;21.42;12.25;;;;;;;7.64;75.60;101396.56;5074267;28;20114;-66
2022/03/13 02:55:47;;;;;;;20.77;11.73;;;;;;;7.52;76.24;101390.09;5074343;28;20051;-66
2022/03/13 02:58:18;;;;;;;19.95;11.50;;;;;;;7.57;75.79;101399.44;5073691;28;20052;-66
2022/03/13 03:00:49;;;;;;;20.60;11.57;;;;;;;7.49;76.35;101396.31;5067837;28;20059;-66
2022/03/13 03:03:19;;;;;;;21.50;11.90;;;;;;;7.53;76.35;101392.66;5071736;28;20114;-66
2022/03/13 03:05:48;;;;;;;21.45;12.65;;;;;;;7.60;75.40;101390.63;5074015;28;20134;-66
2022/03/13 03:08:18;;;;;;;21.75;12.82;;;;;;;7.53;76.33;101392.66;5073920;28;20518;-66
2022/03/13 03:10:48;;;;;;;20.67;12.80;;;;;;;7.54;75.88;101386.50;5073509;28;20044;-66
2022/03/13 03:13:17;;;;;;;19.88;12.75;;;;;;;7.54;75.91;101381.25;5073457;28;20533;-66
2022/03/13 03:15:46;;;;;;;19.95;11.82;;;;;;;7.56;75.26;101389.88;5072607;28;20053;-66
2022/03/13 03:18:16;;;;;;;20.05;12.18;;;;;;;7.54;75.63;101390.88;5073825;28;20036;-66
2022/03/13 03:20:44;;;;;;;21.52;12.48;;;;;;;7.59;75.68;101391.53;5073587;28;20044;-67
2022/03/13 03:23:13;;;;;;;19.00;11.55;;;;;;;7.52;75.12;101390.09;5071919;28;20048;-66
2022/03/13 03:25:44;;;;;;;21.45;12.73;;;;;;;7.54;75.05;101389.13;5073690;28;20049;-66
2022/03/13 03:28:17;;;;;;;18.10;11.18;;;;;;;7.55;75.37;101382.97;5073658;28;20670;-66
2022/03/13 03:30:45;;;;;;;23.17;13.05;;;;;;;7.50;75.62;101382.31;5073588;28;20050;-66
2022/03/13 03:33:13;;;;;;;20.50;12.95;;;;;;;7.53;75.20;101384.78;5073558;28;20048;-66
2022/03/13 03:35:42;;;;;;;20.55;12.68;;;;;;;7.50;75.14;101387.56;5073743;28;20464;-66
2022/03/13 03:38:11;;;;;;;21.70;11.88;;;;;;;7.45;75.67;101385.13;5073446;28;20106;-66
2022/03/13 03:40:43;;;;;;;19.08;11.48;;;;;;;7.45;75.40;101379.03;5071920;28;20060;-66
2022/03/13 03:43:13;;;;;;;;;;;;;;;7.41;75.41;101378.31;5073970;28;20044;-67
2022/03/13 03:45:41;;;;;;;22.85;11.63;;;;;;;7.39;75.45;101385.41;5073354;28;20302;-66
2022/03/13 03:48:09;;;;;;;19.73;11.52;;;;;;;7.41;74.86;101382.72;5073205;28;20102;-66
2022/03/13 03:50:39;;;;;;;19.00;11.60;;;;;;;7.41;75.17;101377.47;5072990;28;20056;-66
2022/03/13 03:53:07;;;;;;;22.27;12.07;;;;;;;7.42;74.79;101382.63;5072858;28;20572;-66
2022/03/13 03:55:35;;;;;;;21.70;12.48;;;;;;;7.34;74.67;101378.66;5072616;28;20063;-66
2022/03/13 03:58:03;;;;;;;19.08;11.60;;;;;;;7.35;74.91;101377.72;5072913;28;20040;-66
2022/03/13 04:00:34;;;;;;;22.63;12.65;;;;;;;7.43;74.26;101379.13;5073277;28;20442;-66
2022/03/13 04:03:03;;;;;;;20.90;11.20;;;;;;;7.28;74.63;101378.00;5072021;28;20063;-66
2022/03/13 04:05:32;;;;;;;19.13;10.88;;;;;;;7.32;74.15;101378.72;5072896;28;20041;-67
2022/03/13 04:08:00;;;;;;;20.48;12.65;;;;;;;7.36;74.01;101384.66;5072741;28;20051;-67
2022/03/13 04:10:28;;;;;;;17.70;10.60;;;;;;;7.37;74.11;101375.91;5072938;28;20384;-66
2022/03/13 04:12:57;;;;;;;18.20;10.50;;;;;;;7.48;73.56;101378.06;5072690;28;20048;-66
2022/03/13 04:15:25;;;;;;;21.60;11.75;;;;;;;7.45;72.86;101374.66;5072793;28;20040;-66
2022/03/13 04:17:55;;;;;;;20.20;10.95;;;;;;;7.42;72.57;101373.94;5072481;28;20048;-66
2022/03/13 04:20:24;;;;;;;20.02;10.95;;;;;;;7.35;72.71;101372.50;5072560;28;20387;-66
2022/03/13 04:22:54;;;;;;;17.02;10.57;;;;;;;7.38;71.81;101372.38;5072885;28;20044;-66
2022/03/13 04:25:23;;;;;;;19.75;11.23;;;;;;;7.34;71.85;101371.66;5072763;28;20361;-66
2022/03/13 04:27:51;;;;;;;21.65;11.57;;;;;;;7.34;70.52;101376.06;5072655;28;20095;-66
2022/03/13 04:30:21;;;;;;;18.70;11.00;;;;;;;7.39;70.07;101374.94;5072459;28;20044;-66
2022/03/13 04:32:50;;;;;;;22.33;10.70;;;;;;;7.43;69.89;101376.50;5072630;28;20036;-66
2022/03/13 04:35:19;;;;;;;17.70;10.38;;;;;;;7.45;69.00;101369.41;5072319;28;20519;-66
2022/03/13 04:37:47;;;;;;;19.10;10.07;;;;;;;7.41;68.07;101383.53;5072523;28;20114;-66
2022/03/13 04:40:17;;;;;;;17.75;9.88;;;;;;;7.41;68.07;101380.94;5071875;28;20068;-66
2022/03/13 04:42:46;;;;;;;18.23;9.63;;;;;;;7.47;66.86;101379.81;5072215;28;20094;-66
2022/03/13 04:45:18;;;;;;;15.25;9.98;;;;;;;7.36;67.29;101377.69;5071992;28;20045;-66
2022/03/13 04:47:46;;;;;;;19.25;10.70;;;;;;;7.38;67.10;101380.22;5071671;28;20040;-66
2022/03/13 04:50:14;;;;;;;19.75;10.70;;;;;;;7.39;66.88;101381.91;5072029;28;20215;-66
2022/03/13 04:52:47;;;;;;;19.48;10.55;;;;;;;7.39;67.69;101381.91;5071838;28;20055;-66
2022/03/13 04:55:18;;;;;;;20.42;11.65;;;;;;;7.32;67.79;101383.09;5070323;28;20067;-67
2022/03/13 04:57:46;;;;;;;20.58;10.13;;;;;;;7.33;67.95;101383.03;5072065;28;20522;-66
2022/03/13 05:00:15;;;;;;;17.35;10.18;;;;;;;7.31;67.89;101378.78;5072150;28;20529;-66
2022/03/13 05:02:43;;;;;;;18.92;10.40;;;;;;;7.32;68.34;101367.41;5071893;28;20056;-66
2022/03/13 05:05:13;;;;;;;18.55;10.50;;;;;;;7.33;67.36;101364.72;5072084;28;20048;-66
2022/03/13 05:07:42;;;;;;;18.92;9.80;;;;;;;7.34;67.12;101362.97;5072311;28;20057;-66
2022/03/13 05:10:17;;;;;;;20.60;10.77;;;;;;;7.41;65.22;101361.78;5072347;28;20365;-66
2022/03/13 05:12:46;;;;;;;16.85;9.82;;;;;;;7.37;65.54;101365.44;5072104;28;20040;-66
2022/03/13 05:15:14;;;;;;;17.17;9.68;;;;;;;7.34;65.41;101362.97;5071969;28;20049;-66
2022/03/13 05:17:43;;;;;;;16.90;9.75;;;;;;;7.26;64.98;101364.13;5071778;28;20102;-66
2022/03/13 05:20:14;;;;;;;17.60;9.80;;;;;;;7.29;64.63;101373.59;5071847;28;20059;-66
2022/03/13 05:22:43;;;;;;;16.85;10.25;;;;;;;7.31;64.71;101378.78;5073184;28;20403;-66
2022/03/13 05:25:11;;;;;;;17.88;10.30;;;;;;;7.27;64.44;101365.81;5075981;28;21094;-66
2022/03/13 05:27:40;;;;;;;17.17;9.60;;;;;;;7.26;63.54;101369.34;5074521;28;20058;-66
2022/03/13 05:30:10;;;;;;;17.65;9.55;;;;;;;7.26;62.99;101364.13;5075836;28;20048;-66
2022/03/13 05:32:39;;;;;;;16.52;9.43;;;;;;;7.28;62.99;101367.53;5075868;28;20139;-66
2022/03/13 05:35:12;;;;;;;18.60;10.20;;;;;;;7.32;61.83;101368.28;5075715;28;20055;-66
2022/03/13 05:37:42;;;;;;;16.38;8.80;;;;;;;7.30;62.08;101364.84;5075736;28;20376;-66
2022/03/13 05:40:15;;;;;;;17.98;8.40;;;;;;;7.32;61.82;101370.88;5075377;28;20067;-66
2022/03/13 05:42:50;;;;;;;17.63;8.70;;;;;;;7.34;61.43;101370.81;5075695;28;20397;-66
2022/03/13 05:45:20;;;;;;;16.27;9.48;;;;;;;7.28;61.50;101369.31;5075974;28;20063;-66
2022/03/13 05:47:50;;;;;;;17.00;8.48;;;;;;;7.30;60.69;101369.25;5075932;28;20446;-66
2022/03/13 05:50:19;;;;;;;16.77;9.35;;;;;;;7.33;60.50;101369.09;5075704;28;20040;-66
2022/03/13 05:52:48;;;;;;;19.33;9.23;;;;;;;7.31;59.86;101378.78;5075600;28;20143;-66
2022/03/13 05:55:18;;;;;;;16.17;8.85;;;;;;;7.31;60.02;101374.41;5075263;28;20540;-66
2022/03/13 05:57:49;;;;;;;16.75;9.57;;;;;;;7.33;59.29;101374.34;5075317;28;20053;-66
2022/03/13 06:00:19;;;;;;;16.70;8.45;;;;;;;7.23;60.07;101374.72;5075152;28;20514;-66
2022/03/13 06:02:47;;;;;;;15.63;8.88;;;;;;;7.23;60.11;101387.81;5074957;28;20090;-66
2022/03/13 06:05:18;;;;;;;15.38;8.55;;;;;;;7.24;59.51;101379.06;5075124;28;20094;-66
2022/03/13 06:07:49;;;;;;;14.68;9.02;;;;;;;7.21;59.24;101376.56;5075337;28;20102;-66
2022/03/13 06:10:24;;;;;;;15.38;7.88;;;;;;;7.26;58.34;101371.97;5075321;28;20506;-66
2022/03/13 06:12:55;;;;;;;15.25;8.65;;;;;;;7.28;57.90;101375.38;5075240;28;20048;-66
2022/03/13 06:15:24;;;;;;;16.70;9.38;;;;;;;7.34;57.79;101381.28;5073556;28;20092;-66
2022/03/13 06:17:53;;;;;;;18.13;9.43;;;;;;;7.30;57.66;101380.56;5074834;28;20043;-66
2022/03/13 06:20:22;;;;;;;14.55;8.25;;;;;;;7.35;57.62;101389.06;5106910;28;20040;-66
2022/03/13 06:22:51;;;;;;;16.25;8.48;;;;;;;7.31;57.95;101387.50;5074344;28;20076;-66
2022/03/13 06:25:20;;;;;;;14.45;8.00;;;;;;;7.34;57.63;101389.13;5074463;28;20059;-67
2022/03/13 06:27:48;;;;;;;14.68;7.95;;;;;;;7.32;56.70;101389.19;5074275;28;20041;-66
2022/03/13 06:30:18;;;;;;;15.95;8.65;;;;;;;7.36;57.22;101396.00;5074537;28;20527;-66
2022/03/13 06:32:48;;;;;;;14.30;7.90;;;;;;;7.36;56.98;101392.53;5074849;28;20067;-66
2022/03/13 06:35:18;;;;;;;16.58;8.65;;;;;;;7.43;56.81;101391.31;5073351;28;20492;-66
2022/03/13 06:37:48;;;;;;;14.45;8.38;;;;;;;7.38;56.51;101391.53;5074694;28;20131;-66
2022/03/13 06:40:19;;;;;;;15.80;8.95;;;;;;;7.36;56.45;101387.28;5074133;28;20060;-66
2022/03/13 06:42:49;;;;;;;16.67;8.23;;;;;;;7.44;56.68;101390.41;5074592;28;20127;-66
2022/03/13 06:45:19;;;;;;;14.90;7.70;;;;;;;7.41;56.31;101396.63;5074447;28;20056;-66
2022/03/13 06:47:50;;;;;;;15.10;8.75;;;;;;;7.37;56.67;101389.00;5074528;28;20514;-66
2022/03/13 06:50:20;;;;;;;15.65;8.65;;;;;;;7.42;56.69;101392.28;5074429;28;20044;-66
2022/03/13 06:52:50;;;;;;;14.38;8.18;;;;;;;7.46;56.49;101393.84;5074185;28;20051;-66
2022/03/13 06:55:21;;;;;;;14.27;8.40;;;;;;;7.49;55.81;101393.69;5074373;28;20051;-66
2022/03/13 06:57:51;;;;;;;13.57;8.30;;;;;;;7.46;55.80;101396.44;5074233;28;20048;-66
2022/03/13 07:00:21;;;;;;;16.77;9.27;;;;;;;7.52;55.89;101390.94;5074273;28;20146;-66
2022/03/13 07:02:50;;;;;;;19.17;8.65;;;;;;;7.47;56.13;101392.91;5074376;28;20056;-66
2022/03/13 07:05:19;;;;;;;14.60;8.05;;;;;;;7.50;55.46;101400.63;5074145;28;20056;-66
2022/03/13 07:07:47;;;;;;;17.33;9.23;;;;;;;7.51;56.10;101396.25;5074213;28;20044;-66
2022/03/13 07:10:16;;;;;;;15.00;8.65;;;;;;;7.65;55.48;101391.25;5073899;28;20049;-66
2022/03/13 07:12:44;;;;;;;15.35;8.48;;;;;;;7.60;55.92;101383.59;5074187;28;20417;-66
2022/03/13 07:15:14;;;;;;;14.93;8.73;;;;;;;7.63;55.53;101376.53;5073962;28;20384;-66
2022/03/13 07:17:45;;;;;;;17.60;8.85;;;;;;;7.63;54.85;101374.75;5073701;28;20049;-57
2022/03/13 07:20:15;;;;;;;16.42;9.23;;;;;;;7.64;54.75;101378.25;5073712;28;20119;-57
2022/03/13 07:22:45;;;;;;;12.35;7.55;;;;;;;7.67;54.77;101376.31;5072490;28;20036;-57
2022/03/13 07:25:14;;;;;;;14.50;8.30;;;;;;;7.72;53.28;101384.84;5073471;28;20047;-57
2022/03/13 07:27:42;;;;;;;14.30;7.80;;;;;;;7.72;53.67;101395.31;5073642;28;20066;-57
2022/03/13 07:30:14;;;;;;;14.82;7.72;;;;;;;7.78;53.82;101396.78;5073678;28;20507;-57
2022/03/13 07:32:44;;;;;;;16.42;7.78;;;;;;;7.76;53.32;101394.25;5073676;28;20087;-57
2022/03/13 07:35:13;;;;;;;14.90;8.60;;;;;;;7.81;53.15;101395.81;5073730;28;20147;-57
2022/03/13 07:37:41;;;;;;;14.63;7.97;;;;;;;7.92;52.42;101393.56;5073477;28;20518;-57
2022/03/13 07:40:13;;;;;;;15.30;8.02;;;;;;;7.89;53.27;101391.06;5073204;28;20480;-57
2022/03/13 07:42:41;;;;;;;14.23;8.13;;;;;;;7.86;52.75;101389.44;5073636;28;20155;-57
2022/03/13 07:45:10;;;;;;;15.13;8.43;;;;;;;8.01;51.51;101387.06;5072957;28;20097;-57
2022/03/13 07:47:38;;;;;;;13.98;8.10;;;;;;;7.94;51.01;101381.25;5072948;28;20059;-57
2022/03/13 07:50:09;;;;;;;17.02;8.20;;;;;;;7.98;51.54;101381.97;5073500;28;20071;-57
2022/03/13 07:52:37;;;;;;;14.85;8.43;;;;;;;7.97;51.77;101388.97;5073206;28;20059;-57
2022/03/13 07:55:06;;;;;;;16.40;8.38;;;;;;;8.04;51.08;101386.91;5073447;28;20048;-58
2022/03/13 07:57:38;;;;;;;16.80;8.30;;;;;;;8.01;50.92;101384.44;5072774;28;20045;-65
2022/03/13 08:00:15;;;;;;;16.27;8.30;;;;;;;8.10;50.33;101381.41;5072482;28;20054;-66
2022/03/13 08:02:46;;;;;;;15.60;8.32;;;;;;;8.12;50.27;101384.78;5072168;28;20055;-65
2022/03/13 08:05:19;;;;;;;15.35;7.97;;;;;;;8.21;49.86;101394.00;5072860;28;20072;-66
2022/03/13 08:07:49;;;;;;;14.48;8.02;;;;;;;8.28;49.63;101393.63;5072997;28;20043;-65
2022/03/13 08:10:21;;;;;;;16.83;8.52;;;;;;;8.29;49.82;101387.47;5072921;28;20614;-65
2022/03/13 08:12:49;;;;;;;14.20;7.73;;;;;;;8.36;49.55;101387.19;5072836;28;20506;-65
2022/03/13 08:15:17;;;;;;;15.50;8.02;;;;;;;8.46;48.32;101391.09;5072704;28;20052;-65
2022/03/13 08:17:47;;;;;;;16.30;8.38;;;;;;;8.57;48.82;101388.81;5072724;28;20055;-65
2022/03/13 08:20:18;;;;;;;14.57;7.80;;;;;;;8.58;48.74;101390.50;5072974;28;20056;-65
2022/03/13 08:22:46;;;;;;;15.57;7.85;;;;;;;8.59;48.46;101389.59;5072771;28;20051;-65
2022/03/13 08:25:18;;;;;;;13.30;8.35;;;;;;;8.59;48.84;101392.22;5072591;28;20406;-65
2022/03/13 08:27:46;;;;;;;14.40;8.18;;;;;;;8.67;48.47;101385.75;5072653;28;20029;-65
2022/03/13 08:30:15;;;;;;;13.27;7.88;;;;;;;8.69;48.27;101402.28;5072638;28;20048;-65
2022/03/13 08:32:43;;;;;;;14.98;8.07;;;;;;;8.65;49.35;101390.25;5072579;28;20590;-66
2022/03/13 08:35:11;;;;;;;14.85;8.13;;;;;;;8.81;48.37;101385.94;5072385;28;20048;-65
2022/03/13 08:37:41;;;;;;;16.23;8.70;;;;;;;8.77;47.83;101387.84;5072269;28;20184;-67
2022/03/13 08:40:11;;;;;;;14.98;8.30;;;;;;;8.85;48.19;101394.47;5072389;28;20075;-67
2022/03/13 08:42:40;;;;;;;15.85;8.18;;;;;;;8.89;48.54;101389.03;5072332;28;20044;-66
2022/03/13 08:45:11;;;;;;;16.30;8.88;;;;;;;8.95;48.15;101382.63;5072510;28;20188;-65
2022/03/13 08:47:42;;;;;;;16.20;8.13;;;;;;;8.96;47.75;101398.28;5072157;28;20482;-66
2022/03/13 08:50:11;;;;;;;15.82;8.00;;;;;;;8.98;46.97;101395.59;5071071;28;20402;-67
2022/03/13 08:52:40;;;;;;;13.60;8.10;;;;;;;8.98;48.02;101389.50;5072390;28;20561;-66
2022/03/13 08:55:13;;;;;;;14.98;8.10;;;;;;;8.96;47.38;101379.09;5072510;28;20055;-67
2022/03/13 08:57:42;;;;;;;14.65;8.13;;;;;;;8.92;47.36;101381.00;5070273;28;20534;-67
2022/03/13 09:00:13;;;;;;;17.45;8.02;;;;;;;9.01;46.35;101382.31;5072328;28;20048;-66
2022/03/13 09:02:43;;;;;;;14.85;8.60;;;;;;;9.02;46.84;101381.38;5064156;28;20527;-67
2022/03/13 09:05:13;;;;;;;14.88;8.13;;;;;;;9.09;45.79;101380.19;5069422;28;20084;-66
2022/03/13 09:07:43;;;;;;;17.25;8.00;;;;;;;9.08;46.08;101388.09;5062331;28;20040;-67
2022/03/13 09:10:11;;;;;;;13.55;8.60;;;;;;;9.05;46.42;101385.63;5059522;28;20102;-66
2022/03/13 09:12:42;;;;;;;15.13;7.60;;;;;;;9.13;46.54;101386.97;5064997;28;20048;-66
2022/03/13 09:15:11;;;;;;;15.85;8.20;;;;;;;9.18;45.93;101385.88;5062931;28;20048;-67
2022/03/13 09:17:41;;;;;;;14.88;7.78;;;;;;;9.22;45.97;101387.44;5056140;28;20565;-66
2022/03/13 09:20:11;;;;;;;15.30;8.63;;;;;;;9.26;45.83;101379.31;5053752;28;20049;-67
2022/03/13 09:22:39;;;;;;;15.77;8.50;;;;;;;9.23;45.29;101376.84;5070473;28;20056;-67
2022/03/13 09:25:09;;;;;;;16.90;8.65;;;;;;;9.33;45.15;101381.63;5069277;28;20446;-66
2022/03/13 09:27:38;;;;;;;15.85;8.68;;;;;;;9.42;44.93;101378.50;5069762;28;20412;-67
2022/03/13 09:30:08;;;;;;;17.13;8.80;;;;;;;9.48;45.28;101368.53;5068622;28;20048;-66
2022/03/13 09:32:37;;;;;;;16.33;8.30;;;;;;;9.67;44.77;101371.97;5054509;28;20040;-57
2022/03/13 09:35:08;;;;;;;14.68;8.45;;;;;;;9.81;43.45;101370.31;5066275;28;20549;-67
2022/03/13 09:37:37;;;;;;;;;;;;;;;9.96;44.19;101363.38;5063413;28;20064;-58
2022/03/13 09:40:17;;;;;;;15.15;8.77;;;;;;;10.10;44.77;101374.91;5068167;28;19921;-67
2022/03/13 09:42:48;;;;;;;14.80;8.60;;;;;;;10.21;42.66;101372.56;5063622;28;20041;-66
2022/03/13 09:45:16;;;;;;;15.27;8.07;;;;;;;10.45;43.62;101375.63;5061200;28;20041;-66
2022/03/13 09:47:45;;;;;;;13.70;8.00;;;;;;;10.97;42.61;101365.69;5064827;28;20044;-58
2022/03/13 09:50:13;;;;;;;17.45;8.98;;;;;;;11.33;41.68;101361.84;5065805;28;20609;-67
2022/03/13 09:52:42;;;;;;;16.40;8.40;;;;;;;11.69;42.13;101357.88;5059111;28;20099;-58
2022/03/13 09:55:12;;;;;;;14.38;8.90;;;;;;;11.93;41.66;101359.91;5065932;28;20131;-66
2022/03/13 09:57:46;;;;;;;19.58;8.73;;;;;;;12.08;40.48;101359.00;5069039;28;20435;-66
2022/03/13 10:00:17;;;;;;;17.80;9.23;;;;;;;12.37;39.94;101360.72;5068608;28;20044;-58
2022/03/13 10:02:47;;;;;;;15.20;8.43;;;;;;;12.44;41.32;101354.94;5059807;28;20091;-66
2022/03/13 10:05:18;;;;;;;16.58;9.30;;;;;;;12.75;40.72;101352.06;5075198;28;20502;-65
2022/03/13 10:07:54;;;;;;;16.15;9.13;;;;;;;13.15;39.48;101344.13;5091922;28;20040;-58
2022/03/13 10:10:23;;;;;;;14.70;8.68;;;;;;;13.51;40.13;101347.84;5095314;28;20051;-66
2022/03/13 10:12:52;;;;;;;15.93;9.75;;;;;;;13.58;38.98;101340.34;5095246;28;20048;-57
2022/03/13 10:15:20;;;;;;;16.48;9.38;;;;;;;13.71;38.51;101343.00;5095331;28;20040;-64
2022/03/13 10:17:49;;;;;;;16.75;9.32;;;;;;;13.93;39.47;101340.50;5095271;28;20040;-64
2022/03/13 10:20:19;;;;;;;17.27;10.35;;;;;;;14.07;39.34;101336.88;5095260;28;20510;-63
2022/03/13 10:22:49;;;;;;;15.63;9.48;;;;;;;14.25;38.12;101339.13;5095062;28;20433;-57
2022/03/13 10:25:30;;;;;;;17.05;9.82;;;;;;;14.24;38.17;101333.00;5095420;28;20040;-64
2022/03/13 10:28:13;;;;;;;15.38;9.93;;;;;;;14.66;39.02;101330.81;5095423;28;20062;-65
2022/03/13 10:30:41;;;;;;;17.05;10.27;;;;;;;14.57;37.53;101326.16;5095229;28;20064;-57
2022/03/13 10:33:10;;;;;;;17.52;10.38;;;;;;;14.47;38.65;101327.81;5094758;28;20123;-57
2022/03/13 10:35:39;;;;;;;17.30;10.32;;;;;;;14.78;39.12;101330.84;5095081;28;20059;-65
2022/03/13 10:38:16;;;;;;;16.40;9.57;;;;;;;15.09;37.83;101332.00;5093408;28;20048;-64
2022/03/13 10:40:46;;;;;;;19.08;10.20;;;;;;;15.06;38.35;101318.16;5094334;28;20048;-57
2022/03/13 10:43:19;;;;;;;18.15;10.65;;;;;;;15.32;38.07;101322.28;5094611;28;20052;-57
2022/03/13 10:45:53;;;;;;;19.00;10.60;;;;;;;15.31;38.31;101323.25;5094667;28;20128;-57
2022/03/13 10:48:28;;;;;;;18.33;10.73;;;;;;;15.57;37.62;101324.81;5094688;28;20044;-65
2022/03/13 10:50:58;;;;;;;16.27;10.18;;;;;;;15.96;38.86;101323.50;5094567;28;20475;-64
2022/03/13 10:53:27;;;;;;;18.00;10.75;;;;;;;16.36;36.69;101303.47;5094476;28;20071;-58
2022/03/13 10:56:08;;;;;;;16.38;10.95;;;;;;;16.30;36.14;101314.63;5094647;28;20483;-64
2022/03/13 10:58:40;;;;;;;15.57;10.70;;;;;;;16.50;35.96;101313.81;5094296;28;20040;-66
2022/03/13 11:01:12;;;;;;;20.30;11.23;;;;;;;16.63;36.32;101310.13;5094412;28;20052;-63
2022/03/13 11:03:48;;;;;;;;;;;;;;;17.07;36.22;101302.91;5094853;28;20048;-58
2022/03/13 11:06:17;;;;;;;16.23;10.27;;;;;;;17.30;36.15;101302.72;5094557;28;19920;-57
2022/03/13 11:08:45;;;;;;;18.38;10.98;;;;;;;17.12;35.64;101298.03;5094295;28;20076;-57
2022/03/13 11:11:16;;;;;;;20.42;10.70;;;;;;;17.59;35.00;101300.22;5094133;28;20058;-57
2022/03/13 11:13:52;;;;;;;17.35;10.50;;;;;;;17.57;34.50;101304.81;5094083;28;20120;-57
2022/03/13 11:16:25;;;;;;;16.63;10.40;;;;;;;17.79;34.31;101297.59;5078018;28;20056;-57
2022/03/13 11:18:55;;;;;;;16.88;10.63;;;;;;;17.75;34.88;101291.69;5063275;28;20376;-58
2022/03/13 11:21:25;;;;;;;18.38;11.32;;;;;;;17.79;34.07;101305.56;5064278;28;20507;-58
2022/03/13 11:23:53;;;;;;;19.20;11.45;;;;;;;17.51;35.29;101297.38;5070644;28;20040;-58
2022/03/13 11:26:25;;;;;;;16.83;11.10;;;;;;;17.91;35.26;101296.50;5054052;28;20049;-58
2022/03/13 11:28:55;;;;;;;16.00;10.55;;;;;;;17.85;34.62;101299.72;5053762;28;20064;-57
2022/03/13 11:31:37;;;;;;;16.65;9.98;;;;;;;17.76;34.59;101293.38;5053001;28;20048;-65
2022/03/13 11:34:13;;;;;;;19.15;10.32;;;;;;;18.35;34.35;101283.69;5058922;28;20080;-58